Kezdőlap
METAR-TAF:

METAR-TAF

Repülőterek :

Davenport Municipal Airport

Davenport, Iowa, Amerikai Egyesült Államok

földrajzi szélesség: 41-36-50N, földrajzi hosszúság: 090-35-29W, magasság: 229 m

Jelenlegi meteorológiai megfigyelések

A jelentés 18 perccel ezelõtt készült, 02:33 UTC
Déli szél 7 kt
Hőmérséklet 19°C
Páratartalom 88%
Légköri nyomás 1006 hPa
Látótávolság: 16.1 km
Kevés felhő 4600 lábon
Szórványos felhőzet 9000 lábon
Borult 11000 lábon
enyhe esõ

METAR: KDVN 260233Z AUTO 19007KT 10SM -RA FEW046 SCT090 OVC110 19/17 A2971 RMK AO2 PK WND 22037/0156 LTG DSNT N AND NW RAB0155 TSB01E17 P0050 T01890172

Idő: 21:51 (02:51 UTC)


TAF: hiányzik

Meteorológiai megfigyelések és előrejelzések több, mint 4000 repülőtéren (METAR és TAF jelentéseket).

A térképen piros és sárga pontok jelzik az elérhető meteorológiai állomásokat.

Mozgassa az egeret a pont fölött, hogy megjelenjen az állomás neve.

Azután kattintson az időjárási megfigyelések és előrejelzések megtekintéséhez.

A térkép megváltoztatása: kattintson a fekete keresztel jelölt zöld gombra ráközelítéshez, a vonallal jelölt zöld gombra távolításhoz, vagy a zöld nyilakra a szomszédos térképek eléréséhez.


METAR-TAF: